Time;durP1;ratioP1;P1;durP2;ratioP2;P2;SDS_P1;SDS_P2;PMS_P1;PMS_P2;Temp;Humidity;BMP_temperature;BMP_pressure;BME280_temperature;BME280_humidity;BME280_pressure;Samples;Min_cycle;Max_cycle;Signal;HPM_P1;HPM_P2
2022/11/02 00:01:42;;;;;;;0.10;0.10;;;;;;;8.96;73.61;100120.13;7357930;19;20010;-60
2022/11/02 00:04:08;;;;;;;0.00;0.00;;;;;;;8.94;73.45;100116.72;7358817;19;20518;-61
2022/11/02 00:06:33;;;;;;;0.00;0.00;;;;;;;8.89;73.83;100107.31;7360618;19;20081;-60
2022/11/02 00:08:59;;;;;;;0.00;0.00;;;;;;;8.82;73.42;100097.06;7357953;19;20393;-60
2022/11/02 00:11:24;;;;;;;0.00;0.00;;;;;;;8.91;73.16;100119.41;7362856;19;20461;-60
2022/11/02 00:13:49;;;;;;;0.00;0.00;;;;;;;8.90;73.03;100119.44;7361440;19;20044;-60
2022/11/02 00:16:17;;;;;;;0.00;0.00;;;;;;;8.90;73.59;100125.50;7361399;19;20014;-60
2022/11/02 00:18:44;;;;;;;0.00;0.00;;;;;;;8.89;73.16;100125.56;7361396;19;20022;-61
2022/11/02 00:21:10;;;;;;;0.10;0.10;;;;;;;8.88;73.03;100126.44;7362276;19;20105;-61
2022/11/02 00:23:36;;;;;;;0.00;0.00;;;;;;;8.84;73.06;100131.72;7363622;19;20006;-60
2022/11/02 00:26:02;;;;;;;0.00;0.00;;;;;;;8.84;73.08;100125.66;7359834;19;20014;-60
2022/11/02 00:28:27;;;;;;;0.00;0.00;;;;;;;8.83;72.83;100129.16;7364401;19;20374;-61
2022/11/02 00:30:53;;;;;;;0.00;0.00;;;;;;;8.55;72.66;100088.16;7362007;19;20007;-61
2022/11/02 00:33:18;;;;;;;0.08;0.08;;;;;;;8.80;72.67;100134.44;7362057;19;20017;-61
2022/11/02 00:35:45;;;;;;;0.00;0.00;;;;;;;8.79;73.17;100135.34;7363096;19;20009;-61
2022/11/02 00:38:10;;;;;;;0.00;0.00;;;;;;;8.63;72.85;100115.78;7363941;19;20021;-61
2022/11/02 00:40:36;;;;;;;0.10;0.10;;;;;;;8.78;72.76;100150.09;7361416;19;20726;-60
2022/11/02 00:43:01;;;;;;;0.00;0.00;;;;;;;8.76;72.74;100143.19;7364653;19;20031;-60
2022/11/02 00:45:27;;;;;;;0.00;0.00;;;;;;;8.75;72.79;100141.50;7361454;19;21008;-60
2022/11/02 00:47:52;;;;;;;0.00;0.00;;;;;;;8.74;72.74;100145.00;7358038;19;20661;-60
2022/11/02 00:50:18;;;;;;;0.00;0.00;;;;;;;8.71;72.81;100145.06;7362509;19;20365;-60
2022/11/02 00:52:43;;;;;;;0.00;0.00;;;;;;;8.73;72.60;100145.91;7360923;19;20020;-61
2022/11/02 00:55:10;;;;;;;0.00;0.00;;;;;;;8.74;72.72;100152.81;7360209;19;20086;-60
2022/11/02 00:57:37;;;;;;;0.00;0.00;;;;;;;8.74;72.85;100145.00;7361960;19;20023;-60
2022/11/02 01:00:04;;;;;;;;;;;;;;;8.75;73.15;100154.50;7363034;19;20015;-60
2022/11/02 01:02:29;;;;;;;0.00;0.00;;;;;;;8.70;72.89;100145.97;7360789;19;20331;-60
2022/11/02 01:04:54;;;;;;;0.00;0.00;;;;;;;8.71;72.47;100145.91;7362540;19;20006;-60
2022/11/02 01:07:20;;;;;;;0.08;0.08;;;;;;;8.68;72.26;100140.81;7363334;19;20014;-60
2022/11/02 01:09:45;;;;;;;0.00;0.00;;;;;;;8.68;72.78;100155.56;7358762;19;20032;-61
2022/11/02 01:12:10;;;;;;;0.00;0.00;;;;;;;8.66;72.79;100159.94;7363881;19;20011;-60
2022/11/02 01:14:36;;;;;;;0.00;0.00;;;;;;;8.64;72.39;100153.94;7361532;19;20357;-60
2022/11/02 01:17:03;;;;;;;0.00;0.00;;;;;;;8.53;72.94;100135.97;7362775;19;20434;-60
2022/11/02 01:19:29;;;;;;;0.00;0.00;;;;;;;8.63;72.37;100147.00;7359820;19;20534;-60
2022/11/02 01:21:54;;;;;;;0.03;0.03;;;;;;;8.63;72.56;100154.81;7358714;19;20465;-60
2022/11/02 01:24:19;;;;;;;0.00;0.00;;;;;;;8.62;72.44;100155.69;7361993;19;20474;-60
2022/11/02 01:26:48;;;;;;;0.00;0.00;;;;;;;8.62;72.27;100150.47;7361825;19;20086;-61
2022/11/02 01:29:14;;;;;;;0.00;0.00;;;;;;;8.61;72.52;100153.97;7361402;19;20014;-60
2022/11/02 01:31:39;;;;;;;0.00;0.00;;;;;;;8.56;72.67;100147.13;7362236;19;20031;-60
2022/11/02 01:34:05;;;;;;;0.00;0.00;;;;;;;8.60;72.64;100152.28;7360704;19;20054;-60
2022/11/02 01:36:30;;;;;;;0.00;0.00;;;;;;;8.58;72.78;100134.97;7360522;19;20010;-60
2022/11/02 01:38:55;;;;;;;0.00;0.00;;;;;;;8.58;72.47;100139.31;7362628;19;20073;-61
2022/11/02 01:41:21;;;;;;;0.00;0.00;;;;;;;8.57;72.29;100148.88;7358693;19;20035;-60
2022/11/02 01:43:50;;;;;;;0.00;0.00;;;;;;;8.57;72.60;100138.47;7361822;19;20740;-60
2022/11/02 01:46:22;;;;;;;0.00;0.00;;;;;;;8.46;72.33;100114.41;7361463;19;20706;-60
2022/11/02 01:48:53;;;;;;;0.00;0.00;;;;;;;8.58;72.33;100140.16;7362590;19;20415;-60
2022/11/02 01:51:30;;;;;;;0.00;0.00;;;;;;;8.58;72.34;100145.38;7359393;19;20014;-61
2022/11/02 01:54:03;;;;;;;0.00;0.00;;;;;;;8.57;72.64;100132.41;7361464;19;20015;-60
2022/11/02 01:56:31;;;;;;;0.08;0.08;;;;;;;8.54;72.28;100138.50;7360264;19;20021;-61
2022/11/02 01:59:01;;;;;;;0.00;0.00;;;;;;;8.55;72.32;100140.22;7359613;19;20010;-60
2022/11/02 02:01:28;;;;;;;0.00;0.00;;;;;;;8.54;72.07;100138.50;7358499;19;20039;-60
2022/11/02 02:03:56;;;;;;;0.10;0.10;;;;;;;8.55;72.53;100128.97;7360812;19;20006;-61
2022/11/02 02:06:24;;;;;;;0.10;0.10;;;;;;;8.54;72.23;100130.72;7359789;19;20018;-61
2022/11/02 02:08:50;;;;;;;0.10;0.10;;;;;;;8.54;72.19;100128.09;7366006;19;20082;-60
2022/11/02 02:11:34;;;;;;;0.10;0.10;;;;;;;8.38;72.16;100090.34;7366153;19;20012;-60
2022/11/02 02:14:02;;;;;;;0.00;0.00;;;;;;;8.45;71.73;100099.69;7367774;19;20529;-60
2022/11/02 02:16:53;;;;;;;0.10;0.10;;;;;;;8.54;72.23;100117.69;7365311;19;20041;-61
2022/11/02 02:19:49;;;;;;;0.00;0.00;;;;;;;8.55;72.14;100114.19;7366414;19;20357;-60
2022/11/02 02:22:22;;;;;;;0.00;0.00;;;;;;;8.53;72.23;100118.59;7263876;19;2004350;-60
2022/11/02 02:25:04;;;;;;;0.00;0.00;;;;;;;8.55;72.30;100108.13;7366512;19;20035;-60
2022/11/02 02:27:51;;;;;;;0.08;0.08;;;;;;;8.53;71.57;100110.78;7366744;19;20026;-60
2022/11/02 02:30:17;;;;;;;0.00;0.00;;;;;;;8.48;71.74;100099.63;7364015;19;20013;-60
2022/11/02 02:32:55;;;;;;;0.00;0.00;;;;;;;8.52;71.69;100109.09;7365859;19;20014;-61
2022/11/02 02:35:27;;;;;;;0.00;0.00;;;;;;;8.52;71.91;100119.50;7367330;19;20003;-59
2022/11/02 02:38:02;;;;;;;0.00;0.00;;;;;;;8.52;72.26;100114.28;7364688;19;20857;-60
2022/11/02 02:40:36;;;;;;;0.00;0.00;;;;;;;8.52;71.79;100114.28;7366393;19;20014;-60
2022/11/02 02:43:14;;;;;;;0.00;0.00;;;;;;;8.53;72.13;100110.78;7367134;19;20017;-60
2022/11/02 02:45:44;;;;;;;;;;;;;;;8.54;72.35;100112.50;7368048;19;20011;-61
2022/11/02 02:48:20;;;;;;;0.10;0.10;;;;;;;8.51;71.73;100102.16;7365835;19;19918;-60
2022/11/02 02:50:56;;;;;;;0.10;0.10;;;;;;;8.47;71.73;100100.53;7362118;19;20002;-60
2022/11/02 02:53:30;;;;;;;0.00;0.00;;;;;;;8.54;71.40;100102.09;7367590;19;20048;-61
2022/11/02 02:55:59;;;;;;;0.00;0.00;;;;;;;8.38;71.66;100069.53;7365532;19;20010;-60
2022/11/02 02:58:29;;;;;;;0.00;0.00;;;;;;;8.38;71.38;100053.91;7355957;19;20073;-60
2022/11/02 03:00:55;;;;;;;0.00;0.00;;;;;;;8.53;71.30;100087.38;7363299;19;20736;-61
2022/11/02 03:03:24;;;;;;;0.00;0.00;;;;;;;8.55;71.62;100080.38;7364068;19;20021;-60
2022/11/02 03:06:04;;;;;;;0.00;0.00;;;;;;;8.57;71.19;100070.78;7360319;19;20003;-60
2022/11/02 03:08:30;;;;;;;0.00;0.00;;;;;;;8.58;71.84;100075.09;7364809;19;20636;-60
2022/11/02 03:11:01;;;;;;;0.00;0.00;;;;;;;8.58;71.20;100069.03;7362804;19;20734;-60
2022/11/02 03:13:48;;;;;;;0.00;0.00;;;;;;;8.62;71.36;100085.41;7364271;19;20030;-59
2022/11/02 03:16:33;;;;;;;0.00;0.00;;;;;;;8.65;71.44;100099.22;7363621;19;20010;-60
2022/11/02 03:19:28;;;;;;;0.00;0.00;;;;;;;8.66;71.59;100095.72;7362378;19;20131;-60
2022/11/02 03:22:21;;;;;;;0.00;0.00;;;;;;;8.70;71.39;100105.16;7261807;19;2004084;-59
2022/11/02 03:24:56;;;;;;;0.10;0.10;;;;;;;8.70;71.02;100112.13;7260568;19;2004532;-60
2022/11/02 03:27:30;;;;;;;0.00;0.00;;;;;;;8.72;71.41;100116.41;7361994;19;20037;-61
2022/11/02 03:30:19;;;;;;;0.00;0.00;;;;;;;8.74;71.39;100124.19;7360121;19;20078;-60
2022/11/02 03:33:05;;;;;;;0.00;0.00;;;;;;;8.63;71.13;100100.16;7363457;19;20034;-60
2022/11/02 03:35:40;;;;;;;0.10;0.10;;;;;;;8.76;70.97;100112.81;7360145;19;20022;-60
2022/11/02 03:38:42;;;;;;;0.00;0.00;;;;;;;8.78;71.03;100110.19;7364150;19;20635;-60
2022/11/02 03:41:08;;;;;;;0.08;0.08;;;;;;;8.75;71.02;100105.91;7258854;19;2004514;-60
2022/11/02 03:43:37;;;;;;;0.10;0.10;;;;;;;8.78;70.89;100102.38;7363917;19;20006;-60
2022/11/02 03:46:05;;;;;;;0.00;0.00;;;;;;;8.80;71.05;100098.00;7360000;19;21715;-60
2022/11/02 03:48:34;;;;;;;;;;;;;;;8.85;71.41;100093.53;7363681;19;20017;-60
2022/11/02 03:51:05;;;;;;;0.10;0.10;;;;;;;8.72;70.76;100063.50;7358061;19;19939;-60
2022/11/02 03:53:43;;;;;;;0.08;0.08;;;;;;;8.88;70.95;100080.44;7363432;19;20007;-60
2022/11/02 03:56:20;;;;;;;0.00;0.00;;;;;;;8.89;70.94;100082.13;7362900;19;20009;-60
2022/11/02 03:58:45;;;;;;;0.00;0.00;;;;;;;8.89;70.97;100081.28;7363719;19;20549;-60
2022/11/02 04:01:11;;;;;;;0.00;0.00;;;;;;;8.80;71.29;100067.59;7360203;19;20002;-61
2022/11/02 04:03:43;;;;;;;0.10;0.10;;;;;;;8.92;70.81;100076.88;7363242;19;20098;-60
2022/11/02 04:06:09;;;;;;;0.00;0.00;;;;;;;8.92;71.34;100071.66;7351879;19;20493;-60
2022/11/02 04:08:36;;;;;;;0.00;0.00;;;;;;;8.94;70.92;100084.63;7365043;19;20018;-60
2022/11/02 04:16:29;;;;;;;0.00;0.00;;;;;;;9.01;71.05;100076.59;7363002;19;20023;-60
2022/11/02 04:21:39;;;;;;;0.00;0.00;;;;;;;8.68;70.56;99999.41;7359671;19;20031;-60
2022/11/02 04:26:49;;;;;;;0.00;0.00;;;;;;;9.09;70.65;100066.84;7361794;19;20017;-60
2022/11/02 04:29:14;;;;;;;0.00;0.00;;;;;;;9.13;71.06;100064.16;7363651;19;20007;-60
2022/11/02 04:31:40;;;;;;;0.00;0.00;;;;;;;9.15;70.97;100067.56;7361536;19;20530;-61
2022/11/02 04:34:05;;;;;;;0.00;0.00;;;;;;;9.17;70.78;100061.41;7364861;19;20042;-59
2022/11/02 04:36:31;;;;;;;0.10;0.10;;;;;;;9.20;71.00;100065.69;7362087;19;20003;-60
2022/11/02 04:38:57;;;;;;;0.00;0.00;;;;;;;9.23;70.50;100060.41;7360438;19;20009;-61
2022/11/02 04:41:41;;;;;;;0.00;0.00;;;;;;;9.27;71.06;100056.81;7362320;19;20350;-60
2022/11/02 04:44:11;;;;;;;0.00;0.00;;;;;;;9.21;71.02;100038.75;7363907;19;20707;-60
2022/11/02 04:46:38;;;;;;;0.00;0.00;;;;;;;9.21;70.53;100037.00;7363642;19;20339;-61
2022/11/02 04:49:04;;;;;;;0.00;0.00;;;;;;;9.27;70.47;100028.16;7363125;19;20006;-60
2022/11/02 04:51:30;;;;;;;0.10;0.10;;;;;;;9.46;70.87;100058.00;7362464;19;20862;-61
2022/11/02 04:53:56;;;;;;;0.00;0.00;;;;;;;9.50;70.36;100053.56;7361797;19;21625;-59
2022/11/02 04:56:26;;;;;;;0.00;0.00;;;;;;;9.56;70.41;100050.78;7358114;19;20464;-60
2022/11/02 04:58:53;;;;;;;0.00;0.00;;;;;;;9.65;70.93;100049.66;7362326;19;20040;-61
2022/11/02 05:01:20;;;;;;;0.00;0.00;;;;;;;9.70;70.45;100042.56;7361512;19;20007;-60
2022/11/02 05:03:50;;;;;;;0.00;0.00;;;;;;;9.75;70.48;100035.47;7362848;19;20022;-60
2022/11/02 05:06:20;;;;;;;0.00;0.00;;;;;;;9.85;70.14;100026.47;7363107;19;22111;-59
2022/11/02 05:08:45;;;;;;;0.00;0.00;;;;;;;9.91;69.91;100026.28;7362075;19;20020;-61
2022/11/02 05:11:11;;;;;;;0.00;0.00;;;;;;;9.99;70.26;100037.34;7360349;19;20015;-61
2022/11/02 05:13:38;;;;;;;0.00;0.00;;;;;;;10.05;69.93;100026.69;7362182;19;20745;-61
2022/11/02 05:16:05;;;;;;;0.00;0.00;;;;;;;10.10;69.84;100018.72;7363542;19;20007;-61
2022/11/02 05:18:31;;;;;;;0.10;0.10;;;;;;;10.16;69.24;100018.53;7338969;19;20093;-60
2022/11/02 05:20:59;;;;;;;0.00;0.00;;;;;;;10.24;69.85;100000.03;7361886;19;20117;-60
2022/11/02 05:23:25;;;;;;;0.00;0.00;;;;;;;10.29;69.36;100005.97;7359539;19;20006;-60
2022/11/02 05:26:03;;;;;;;0.00;0.00;;;;;;;10.38;70.49;99995.22;7361297;19;20026;-61
2022/11/02 05:28:30;;;;;;;0.00;0.00;;;;;;;10.39;70.23;99996.91;7361609;19;21097;-61
2022/11/02 05:30:58;;;;;;;0.00;0.00;;;;;;;10.43;70.69;99998.53;7362222;19;20026;-60
2022/11/02 05:33:23;;;;;;;0.00;0.00;;;;;;;10.34;70.40;99980.56;7360486;19;20007;-60
2022/11/02 05:35:49;;;;;;;0.00;0.00;;;;;;;10.18;70.93;99942.81;7362269;19;20007;-61
2022/11/02 05:38:14;;;;;;;0.00;0.00;;;;;;;10.42;71.21;99983.78;7360069;19;20014;-60
2022/11/02 05:40:40;;;;;;;0.00;0.00;;;;;;;10.38;71.06;99977.81;7361533;19;20026;-61
2022/11/02 05:43:09;;;;;;;0.00;0.00;;;;;;;10.38;71.01;99971.72;7367020;19;20006;-60
2022/11/02 05:45:35;;;;;;;0.00;0.00;;;;;;;10.25;71.33;99952.19;7368964;19;20012;-61
2022/11/02 05:48:06;;;;;;;0.00;0.00;;;;;;;10.26;71.75;99956.50;7368398;19;20141;-61
2022/11/02 05:50:32;;;;;;;0.10;0.10;;;;;;;10.27;71.19;99968.63;7363463;19;20021;-61
2022/11/02 05:52:58;;;;;;;0.00;0.00;;;;;;;10.18;71.66;99948.88;7368501;19;20014;-61
2022/11/02 05:55:23;;;;;;;0.00;0.00;;;;;;;10.22;71.62;99944.41;7368723;19;20002;-61
2022/11/02 05:57:53;;;;;;;0.10;0.10;;;;;;;10.24;72.36;99934.81;7365883;19;20014;-61
2022/11/02 06:00:20;;;;;;;0.10;0.10;;;;;;;10.22;72.19;99944.41;7366485;19;20014;-62
2022/11/02 06:02:46;;;;;;;0.00;0.00;;;;;;;10.21;72.35;99933.13;7366877;19;20024;-61
2022/11/02 06:05:12;;;;;;;0.00;0.00;;;;;;;10.18;72.66;99908.91;7368915;19;20017;-61
2022/11/02 06:07:37;;;;;;;0.00;0.00;;;;;;;10.16;72.69;99859.38;7364660;19;20010;-62
2022/11/02 06:10:03;;;;;;;0.00;0.00;;;;;;;10.10;72.84;99868.28;7368359;19;20013;-62
2022/11/02 06:12:28;;;;;;;0.00;0.00;;;;;;;10.18;73.30;99874.97;7367419;19;20014;-61
2022/11/02 06:14:53;;;;;;;0.00;0.00;;;;;;;10.17;73.22;99873.28;7364967;19;20466;-61
2022/11/02 06:17:19;;;;;;;0.00;0.00;;;;;;;10.13;73.15;99865.53;7367634;19;20086;-61
2022/11/02 06:19:44;;;;;;;0.00;0.00;;;;;;;10.20;73.63;99854.94;7365492;19;20006;-62
2022/11/02 06:22:10;;;;;;;0.00;0.00;;;;;;;10.22;73.11;99850.50;7367584;19;20675;-61
2022/11/02 06:24:35;;;;;;;0.00;0.00;;;;;;;10.26;73.59;99852.13;7366147;19;20014;-61
2022/11/02 06:27:00;;;;;;;0.00;0.00;;;;;;;10.29;74.03;99826.78;7366574;19;20010;-61
2022/11/02 06:29:26;;;;;;;0.00;0.00;;;;;;;10.34;73.25;99850.97;7365085;19;20031;-61
2022/11/02 06:31:51;;;;;;;0.00;0.00;;;;;;;10.37;73.61;99822.13;7366189;19;20003;-61
2022/11/02 06:34:17;;;;;;;0.00;0.00;;;;;;;10.40;73.72;99810.75;7366929;19;20031;-60
2022/11/02 06:36:42;;;;;;;0.03;0.03;;;;;;;10.45;73.94;99811.41;7367499;19;20015;-61
2022/11/02 06:39:07;;;;;;;0.10;0.10;;;;;;;10.48;73.62;99795.63;7366581;19;20023;-60
2022/11/02 06:41:33;;;;;;;0.00;0.00;;;;;;;10.53;74.18;99782.41;7366952;19;20029;-61
2022/11/02 06:43:58;;;;;;;0.08;0.08;;;;;;;10.56;74.33;99764.88;7365484;19;20042;-61
2022/11/02 06:46:24;;;;;;;0.00;0.00;;;;;;;10.60;74.41;99758.66;7367204;19;20070;-61
2022/11/02 06:48:49;;;;;;;0.00;0.00;;;;;;;10.63;74.31;99753.28;7365046;19;20039;-61
2022/11/02 06:51:15;;;;;;;0.00;0.00;;;;;;;10.68;74.44;99754.88;7366431;19;20046;-62
2022/11/02 06:53:40;;;;;;;0.00;0.00;;;;;;;10.73;74.49;99751.19;7364583;19;20893;-62
2022/11/02 06:56:06;;;;;;;0.03;0.03;;;;;;;10.73;74.36;99727.69;7366508;19;20015;-61
2022/11/02 06:58:31;;;;;;;0.03;0.03;;;;;;;10.80;74.35;99718.72;7358316;19;20026;-61
2022/11/02 07:00:59;;;;;;;0.00;0.00;;;;;;;10.85;73.94;99726.38;7361695;19;20046;-61
2022/11/02 07:03:24;;;;;;;0.00;0.00;;;;;;;10.87;73.94;99708.88;7360992;19;20010;-61
2022/11/02 07:05:51;;;;;;;0.00;0.00;;;;;;;10.91;73.60;99700.00;7365614;19;20839;-62
2022/11/02 07:08:16;;;;;;;0.00;0.00;;;;;;;10.92;74.13;99696.47;7364809;19;20010;-61
2022/11/02 07:10:42;;;;;;;0.00;0.00;;;;;;;10.88;73.99;99674.00;7364723;19;20047;-62
2022/11/02 07:13:07;;;;;;;0.00;0.00;;;;;;;10.97;73.56;99688.44;7364670;19;20014;-61
2022/11/02 07:15:32;;;;;;;0.00;0.00;;;;;;;11.00;74.06;99688.31;7360640;19;20009;-61
2022/11/02 07:17:58;;;;;;;0.03;0.03;;;;;;;10.62;73.61;99618.44;7340956;19;20478;-61
2022/11/02 07:20:23;;;;;;;0.00;0.00;;;;;;;11.04;73.64;99680.28;7363235;19;20014;-62
2022/11/02 07:23:00;;;;;;;0.00;0.00;;;;;;;11.09;73.91;99662.66;7363569;19;20676;-62
2022/11/02 07:25:29;;;;;;;0.05;0.05;;;;;;;11.08;73.99;99660.97;7362097;19;20018;-62
2022/11/02 07:27:55;;;;;;;0.00;0.00;;;;;;;11.01;74.12;99643.84;7362323;19;20034;-61
2022/11/02 07:30:21;;;;;;;0.00;0.00;;;;;;;11.12;73.67;99644.25;7362081;19;20007;-61
2022/11/02 07:32:46;;;;;;;0.03;0.03;;;;;;;11.14;73.85;99654.63;7360087;19;20007;-61
2022/11/02 07:35:13;;;;;;;0.00;0.00;;;;;;;11.17;73.94;99650.13;7358303;19;20477;-61
2022/11/02 07:37:39;;;;;;;0.00;0.00;;;;;;;11.21;73.97;99640.41;7361230;19;20010;-61
2022/11/02 07:40:06;;;;;;;0.10;0.10;;;;;;;11.18;73.78;99628.31;7358738;19;20038;-61
2022/11/02 07:42:32;;;;;;;0.00;0.00;;;;;;;11.29;73.99;99650.53;7361680;19;20029;-62
2022/11/02 07:44:57;;;;;;;0.00;0.00;;;;;;;11.31;73.55;99640.88;7362187;19;20074;-62
2022/11/02 07:47:23;;;;;;;0.10;0.10;;;;;;;11.38;73.62;99632.69;7361351;19;20013;-61
2022/11/02 07:49:48;;;;;;;0.00;0.00;;;;;;;11.42;73.74;99591.59;7362663;19;22323;-62
2022/11/02 07:52:14;;;;;;;0.00;0.00;;;;;;;11.45;73.93;99599.28;7358187;19;20002;-62
2022/11/02 07:54:39;;;;;;;0.10;0.10;;;;;;;11.49;73.63;99593.00;7363044;19;20014;-62
2022/11/02 07:57:04;;;;;;;0.00;0.00;;;;;;;11.54;73.20;99596.28;7362686;19;20106;-62
2022/11/02 07:59:30;;;;;;;0.00;0.00;;;;;;;11.60;73.17;99601.22;7361335;19;20015;-62
2022/11/02 08:01:55;;;;;;;0.00;0.00;;;;;;;11.69;73.34;99579.91;7360022;19;20006;-62
2022/11/02 08:04:20;;;;;;;0.00;0.00;;;;;;;11.79;73.18;99595.19;7363701;19;20039;-62
2022/11/02 08:06:46;;;;;;;0.00;0.00;;;;;;;11.88;73.04;99568.63;7361068;19;20359;-61
2022/11/02 08:09:11;;;;;;;0.08;0.08;;;;;;;11.97;72.42;99567.38;7361966;19;20027;-62
2022/11/02 08:11:37;;;;;;;0.00;0.00;;;;;;;12.03;72.19;99541.75;7355293;19;20041;-62
2022/11/02 08:14:02;;;;;;;0.00;0.00;;;;;;;12.12;71.97;99557.03;7354656;19;20014;-62
2022/11/02 08:16:28;;;;;;;0.00;0.00;;;;;;;12.18;72.05;99541.03;7358262;19;20023;-62
2022/11/02 08:18:54;;;;;;;0.00;0.00;;;;;;;12.22;72.42;99527.81;7360844;19;20006;-62
2022/11/02 08:21:19;;;;;;;0.05;0.05;;;;;;;12.25;72.28;99506.72;7361581;19;20034;-62
2022/11/02 08:23:45;;;;;;;0.00;0.00;;;;;;;12.28;71.96;99510.03;7357191;19;20097;-62
2022/11/02 08:26:10;;;;;;;0.00;0.00;;;;;;;12.31;72.36;99514.25;7356716;19;20014;-62
2022/11/02 08:28:39;;;;;;;0.00;0.00;;;;;;;12.32;72.10;99492.41;7353435;19;20466;-62
2022/11/02 08:31:06;;;;;;;0.10;0.10;;;;;;;12.32;71.88;99485.41;7356837;19;20006;-61
2022/11/02 08:33:32;;;;;;;0.00;0.00;;;;;;;12.31;72.14;99472.38;7355021;19;20006;-61
2022/11/02 08:36:02;;;;;;;0.00;0.00;;;;;;;12.31;72.41;99464.53;7354945;19;21166;-62
2022/11/02 08:38:28;;;;;;;0.10;0.10;;;;;;;12.28;72.28;99469.94;7356390;19;20098;-62
2022/11/02 08:40:54;;;;;;;0.00;0.00;;;;;;;12.17;72.92;99449.53;7358701;19;20010;-61
2022/11/02 08:43:19;;;;;;;0.00;0.00;;;;;;;12.23;72.70;99438.75;7358632;19;20010;-60
2022/11/02 08:45:45;;;;;;;0.10;0.10;;;;;;;12.19;73.32;99443.28;7362698;19;20019;-60
2022/11/02 08:48:11;;;;;;;0.00;0.00;;;;;;;12.13;73.32;99427.88;7361324;19;20449;-60
2022/11/02 08:50:36;;;;;;;0.03;0.03;;;;;;;12.08;72.91;99424.66;7360750;19;20030;-60
2022/11/02 08:53:03;;;;;;;0.08;0.08;;;;;;;12.06;73.37;99416.00;7358011;19;20669;-60
2022/11/02 08:55:28;;;;;;;0.00;0.00;;;;;;;12.03;73.33;99400.47;7354007;19;20600;-60
2022/11/02 08:57:56;;;;;;;0.08;0.08;;;;;;;12.05;73.32;99413.47;7349990;19;20006;-61
2022/11/02 09:00:24;;;;;;;0.00;0.00;;;;;;;12.02;74.25;99393.56;7363424;19;20019;-61
2022/11/02 09:03:01;;;;;;;0.00;0.00;;;;;;;12.05;74.22;99369.84;7352616;19;20017;-61
2022/11/02 09:05:29;;;;;;;0.00;0.00;;;;;;;12.06;74.42;99363.66;7356985;19;20015;-60
2022/11/02 09:07:59;;;;;;;0.08;0.08;;;;;;;12.10;74.27;99354.75;7351106;19;21559;-61
2022/11/02 09:10:26;;;;;;;0.10;0.10;;;;;;;12.17;74.47;99339.59;7359555;19;20381;-60
2022/11/02 09:12:52;;;;;;;0.00;0.00;;;;;;;12.20;74.73;99340.28;7357086;19;20055;-60
2022/11/02 09:15:17;;;;;;;0.00;0.00;;;;;;;12.20;74.62;99323.72;7356788;19;20043;-61
2022/11/02 09:17:46;;;;;;;0.10;0.10;;;;;;;12.35;74.63;99322.94;7337648;19;20741;-61
2022/11/02 09:20:12;;;;;;;0.00;0.00;;;;;;;12.43;74.62;99319.94;7342324;19;20007;-62
2022/11/02 09:22:37;;;;;;;0.00;0.00;;;;;;;12.52;74.37;99302.88;7338438;19;20462;-61
2022/11/02 09:25:03;;;;;;;0.00;0.00;;;;;;;12.59;73.97;99299.03;7338856;19;20841;-61
2022/11/02 09:27:28;;;;;;;0.00;0.00;;;;;;;12.64;73.92;99299.63;7339415;19;20040;-62
2022/11/02 09:29:54;;;;;;;0.00;0.00;;;;;;;12.65;73.89;99262.84;7337250;19;20350;-62
2022/11/02 09:32:19;;;;;;;0.00;0.00;;;;;;;12.86;73.47;99286.19;7332893;19;20030;-62
2022/11/02 09:34:46;;;;;;;0.00;0.00;;;;;;;12.94;73.42;99273.53;7350063;19;20040;-62
2022/11/02 09:37:11;;;;;;;0.00;0.00;;;;;;;12.85;73.30;99255.69;7354374;19;20772;-62
2022/11/02 09:39:37;;;;;;;0.00;0.00;;;;;;;13.07;72.97;99242.22;7360919;19;20014;-62
2022/11/02 09:42:19;;;;;;;0.00;0.00;;;;;;;13.13;73.08;99242.75;7358255;19;20015;-62
2022/11/02 09:45:00;;;;;;;0.05;0.05;;;;;;;13.14;72.93;99231.34;7361130;19;20010;-62
2022/11/02 09:47:27;;;;;;;0.00;0.00;;;;;;;13.17;72.63;99201.47;7357753;19;20034;-62
2022/11/02 09:49:55;;;;;;;0.00;0.00;;;;;;;13.20;72.49;99196.91;7362395;19;20869;-62
2022/11/02 09:52:34;;;;;;;0.00;0.00;;;;;;;13.29;72.40;99173.75;7360103;19;20011;-62
2022/11/02 09:55:03;;;;;;;0.00;0.00;;;;;;;13.31;72.56;99171.88;7359294;19;20038;-62
2022/11/02 09:57:31;;;;;;;0.00;0.00;;;;;;;13.41;72.12;99147.66;7358203;19;20022;-62
2022/11/02 09:59:57;;;;;;;0.10;0.10;;;;;;;13.46;71.81;99140.34;7359898;19;20029;-62
2022/11/02 10:02:38;;;;;;;0.00;0.00;;;;;;;13.57;71.71;99133.63;7359281;19;20014;-62
2022/11/02 10:05:24;;;;;;;0.00;0.00;;;;;;;13.67;71.33;99108.53;7359979;19;20106;-62
2022/11/02 10:08:09;;;;;;;0.05;0.05;;;;;;;13.74;71.10;99097.59;7359162;19;20010;-62
2022/11/02 10:10:46;;;;;;;0.00;0.00;;;;;;;13.83;71.27;99062.03;7359211;19;20026;-63
2022/11/02 10:13:17;;;;;;;;;;;;;;;13.90;70.79;99083.50;7359985;19;20537;-62
2022/11/02 10:15:49;;;;;;;0.08;0.08;;;;;;;13.91;71.00;99080.78;7360262;19;19939;-62
2022/11/02 10:18:19;;;;;;;0.00;0.00;;;;;;;13.98;70.46;99063.69;7359063;19;20010;-62
2022/11/02 10:20:49;;;;;;;0.00;0.00;;;;;;;14.01;70.77;99037.28;7358124;19;20013;-62
2022/11/02 10:23:30;;;;;;;0.00;0.00;;;;;;;14.08;70.96;99050.84;7357878;19;20346;-63
2022/11/02 10:25:55;;;;;;;0.10;0.10;;;;;;;14.07;70.98;99027.34;7353759;19;20017;-62
2022/11/02 10:28:35;;;;;;;0.00;0.00;;;;;;;14.09;70.57;99028.94;7355920;19;20014;-63
2022/11/02 10:31:02;;;;;;;0.10;0.10;;;;;;;14.15;70.79;99019.81;7364805;19;20815;-62
2022/11/02 10:33:29;;;;;;;0.10;0.10;;;;;;;14.18;70.87;99041.44;7366123;19;20010;-62
2022/11/02 10:36:03;;;;;;;0.10;0.10;;;;;;;14.22;70.71;98982.56;7365552;19;20033;-62
2022/11/02 10:38:38;;;;;;;0.10;0.10;;;;;;;14.25;71.10;98976.28;7363410;19;20011;-63
2022/11/02 10:41:32;;;;;;;0.00;0.00;;;;;;;14.34;70.84;98974.81;7364964;19;20013;-62
2022/11/02 10:44:17;;;;;;;0.10;0.10;;;;;;;14.42;70.58;98936.59;7263073;19;2004263;-62
2022/11/02 10:47:02;;;;;;;0.03;0.03;;;;;;;14.46;70.60;98953.84;7364489;19;20106;-62
2022/11/02 10:49:56;;;;;;;0.10;0.10;;;;;;;14.44;70.50;98928.63;7343146;19;20069;-62
2022/11/02 10:52:21;;;;;;;0.00;0.00;;;;;;;14.48;70.69;98930.97;7259957;19;2004540;-63
2022/11/02 10:54:50;;;;;;;0.08;0.08;;;;;;;14.43;70.18;98937.44;7364501;19;20010;-62
2022/11/02 10:57:21;;;;;;;0.00;0.00;;;;;;;14.51;70.22;98919.44;7363984;19;20402;-62
2022/11/02 11:00:22;;;;;;;0.00;0.00;;;;;;;14.46;70.32;98901.31;7365529;19;20091;-60
2022/11/02 11:03:11;;;;;;;0.00;0.00;;;;;;;14.34;70.53;98911.78;7258216;19;2004027;-60
2022/11/02 11:05:51;;;;;;;0.00;0.00;;;;;;;14.22;71.87;98893.28;7361082;19;20937;-60
2022/11/02 11:08:43;;;;;;;0.10;0.10;;;;;;;14.11;71.95;98879.22;7360693;19;20002;-60
2022/11/02 11:11:25;;;;;;;0.00;0.00;;;;;;;13.99;73.34;98886.13;7257050;19;2004304;-58
2022/11/02 11:13:58;;;;;;;0.00;0.00;;;;;;;13.90;73.23;98891.97;7357789;19;20024;-59
2022/11/02 11:16:35;;;;;;;0.10;0.10;;;;;;;13.83;73.92;98903.78;7360869;19;20010;-59
2022/11/02 11:19:03;;;;;;;0.00;0.00;;;;;;;13.72;74.62;98876.47;7361783;19;20010;-60
2022/11/02 11:21:40;;;;;;;0.00;0.00;;;;;;;13.71;74.81;98860.81;7359522;19;20018;-59
2022/11/02 11:24:30;;;;;;;0.00;0.00;;;;;;;13.69;75.07;98826.84;7362213;19;20014;-60
2022/11/02 11:27:15;;;;;;;0.00;0.00;;;;;;;13.63;75.66;98821.97;7360259;19;20010;-58
2022/11/02 11:29:49;;;;;;;0.10;0.10;;;;;;;13.60;76.00;98809.06;7359233;19;20832;-59
2022/11/02 11:32:29;;;;;;;0.00;0.00;;;;;;;13.56;76.22;98789.22;7360733;19;20040;-60
2022/11/02 11:34:57;;;;;;;0.10;0.10;;;;;;;13.52;76.89;98798.22;7362187;19;20010;-61
2022/11/02 11:37:24;;;;;;;0.00;0.00;;;;;;;13.56;77.32;98764.78;7358904;19;20003;-62
2022/11/02 11:39:54;;;;;;;0.10;0.10;;;;;;;13.57;77.10;98780.41;7361812;19;20026;-62
2022/11/02 11:42:23;;;;;;;0.00;0.00;;;;;;;13.56;77.46;98765.63;7358080;19;20065;-62
2022/11/02 11:45:22;;;;;;;0.08;0.08;;;;;;;13.59;76.96;98761.97;7361331;19;20010;-61
2022/11/02 11:47:58;;;;;;;0.00;0.00;;;;;;;13.60;77.21;98738.25;7256693;19;2004589;-60
2022/11/02 11:50:24;;;;;;;0.00;0.00;;;;;;;13.58;77.39;98748.00;7358756;19;20431;-61
2022/11/02 11:53:20;;;;;;;0.10;0.10;;;;;;;13.58;77.24;98729.63;7359068;19;20122;-62
2022/11/02 11:55:47;;;;;;;0.10;0.10;;;;;;;13.61;77.47;98681.41;7257309;19;2004490;-63
2022/11/02 11:58:32;;;;;;;0.00;0.00;;;;;;;13.63;77.70;98717.06;7360354;19;20010;-63